Time,TemperatureF,DewpointF,PressureIn,WindDirection,WindDirectionDegrees,WindSpeedMPH,WindSpeedGustMPH,Humidity,HourlyPrecipIn,Conditions,Clouds,dailyrainin,SoftwareType,DateUTC
2013-05-04 00:02:00,65.0,43.0,-100.00,East,101,2.0,14.0,46,0.00,,,-99.99,,2013-05-04 04:02:00,
2013-05-04 00:13:00,65.0,43.0,-100.00,East,90,3.0,14.0,47,0.00,,,-99.99,,2013-05-04 04:13:00,
2013-05-04 00:23:00,64.0,43.0,-100.00,East,98,3.0,14.0,47,0.00,,,-99.99,,2013-05-04 04:23:00,
2013-05-04 00:33:00,64.0,43.0,-100.00,SSW,203,2.0,14.0,49,0.00,,,-99.99,,2013-05-04 04:33:00,
2013-05-04 00:42:00,63.0,43.0,-100.00,ESE,104,2.0,14.0,49,0.00,,,-99.99,,2013-05-04 04:42:00,
2013-05-04 00:52:00,63.0,43.0,-100.00,ESE,121,2.0,14.0,50,0.00,,,-99.99,,2013-05-04 04:52:00,
2013-05-04 01:02:00,62.0,43.0,-100.00,SSE,148,2.0,14.0,49,0.00,,,-99.99,,2013-05-04 05:02:00,
2013-05-04 01:12:00,62.0,43.0,-100.00,SE,146,2.0,14.0,50,0.00,,,-99.99,,2013-05-04 05:12:00,
2013-05-04 01:22:00,62.0,43.0,-100.00,SE,135,2.0,14.0,50,0.00,,,-99.99,,2013-05-04 05:22:00,
2013-05-04 01:32:00,61.0,43.0,-100.00,ENE,73,2.0,14.0,51,0.00,,,-99.99,,2013-05-04 05:32:00,
2013-05-04 01:43:00,62.0,43.0,-100.00,East,81,2.0,14.0,51,0.00,,,-99.99,,2013-05-04 05:43:00,
2013-05-04 01:52:00,62.0,43.0,-100.00,SE,136,2.0,14.0,51,0.00,,,-99.99,,2013-05-04 05:52:00,
2013-05-04 02:01:00,61.0,43.0,-100.00,SE,146,2.0,14.0,53,0.00,,,-99.99,,2013-05-04 06:01:00,
2013-05-04 02:11:00,61.0,43.0,-100.00,ESE,105,2.0,14.0,53,0.00,,,-99.99,,2013-05-04 06:11:00,
2013-05-04 02:21:00,60.0,43.0,-100.00,ESE,117,2.0,14.0,53,0.00,,,-99.99,,2013-05-04 06:21:00,
2013-05-04 02:32:00,60.0,43.0,-100.00,NNW,330,1.0,14.0,54,0.00,,,-99.99,,2013-05-04 06:32:00,
2013-05-04 02:42:00,60.0,43.0,-100.00,South,169,1.0,14.0,54,0.00,,,-99.99,,2013-05-04 06:42:00,
2013-05-04 02:52:00,60.0,43.0,-100.00,ESE,104,1.0,14.0,55,0.00,,,-99.99,,2013-05-04 06:52:00,
2013-05-04 03:01:00,59.0,43.0,-100.00,West,272,1.0,14.0,56,0.00,,,-99.99,,2013-05-04 07:01:00,
2013-05-04 03:11:00,59.0,43.0,-100.00,SSW,194,1.0,14.0,56,0.00,,,-99.99,,2013-05-04 07:11:00,
2013-05-04 03:21:00,58.0,41.0,-100.00,ESE,121,1.0,14.0,56,0.00,,,-99.99,,2013-05-04 07:21:00,
2013-05-04 03:32:00,58.0,43.0,-100.00,ESE,110,1.0,14.0,58,0.00,,,-99.99,,2013-05-04 07:32:00,
2013-05-04 03:42:00,58.0,43.0,-100.00,SE,136,1.0,14.0,58,0.00,,,-99.99,,2013-05-04 07:42:00,
2013-05-04 03:52:00,58.0,41.0,-100.00,East,97,1.0,14.0,56,0.00,,,-99.99,,2013-05-04 07:52:00,
2013-05-04 04:02:00,58.0,41.0,-100.00,ESE,107,2.0,2.0,56,0.00,,,-99.99,,2013-05-04 08:02:00,
2013-05-04 04:11:00,60.0,45.0,-100.00,SSE,156,1.0,2.0,58,0.00,,,-99.99,,2013-05-04 08:11:00,
2013-05-04 04:21:00,57.0,39.0,-100.00,ESE,114,1.0,2.0,54,0.00,,,-99.99,,2013-05-04 08:21:00,
2013-05-04 04:32:00,60.0,43.0,-100.00,SE,124,1.0,2.0,54,0.00,,,-99.99,,2013-05-04 08:32:00,
2013-05-04 04:42:00,56.0,37.0,-100.00,ENE,72,1.0,2.0,51,0.00,,,-99.99,,2013-05-04 08:42:00,
2013-05-04 04:52:00,58.0,41.0,-100.00,East,101,2.0,4.0,54,0.00,,,-99.99,,2013-05-04 08:52:00,
2013-05-04 05:02:00,59.0,41.0,-100.00,SSE,160,2.0,4.0,55,0.00,,,-99.99,,2013-05-04 09:02:00,
2013-05-04 05:11:00,58.0,41.0,-100.00,ESE,104,1.0,4.0,55,0.00,,,-99.99,,2013-05-04 09:11:00,
2013-05-04 05:22:00,55.0,37.0,-100.00,ESE,110,2.0,4.0,54,0.00,,,-99.99,,2013-05-04 09:22:00,
2013-05-04 05:32:00,58.0,41.0,-100.00,ESE,107,2.0,4.0,54,0.00,,,-99.99,,2013-05-04 09:32:00,
2013-05-04 05:42:00,54.0,36.0,-100.00,South,182,2.0,4.0,51,0.00,,,-99.99,,2013-05-04 09:42:00,
2013-05-04 05:52:00,55.0,36.0,-100.00,ESE,117,1.0,4.0,51,0.00,,,-99.99,,2013-05-04 09:52:00,
2013-05-04 06:03:00,56.0,39.0,-100.00,ESE,112,2.0,4.0,54,0.00,,,-99.99,,2013-05-04 10:03:00,
2013-05-04 06:12:00,55.0,37.0,-100.00,SSE,160,1.0,4.0,53,0.00,,,-99.99,,2013-05-04 10:12:00,
2013-05-04 06:23:00,56.0,37.0,-100.00,SE,139,1.0,4.0,51,0.00,,,-99.99,,2013-05-04 10:23:00,
2013-05-04 06:33:00,55.0,36.0,-100.00,SE,142,1.0,4.0,51,0.00,,,-99.99,,2013-05-04 10:33:00,
2013-05-04 06:42:00,55.0,36.0,-100.00,SSE,155,1.0,4.0,50,0.00,,,-99.99,,2013-05-04 10:42:00,
2013-05-04 06:52:00,52.0,32.0,-100.00,SE,131,1.0,4.0,47,0.00,,,-99.99,,2013-05-04 10:52:00,
2013-05-04 07:02:00,52.0,32.0,-100.00,East,83,0.0,4.0,47,0.00,,,-99.99,,2013-05-04 11:02:00,
2013-05-04 07:11:00,52.0,32.0,-100.00,SE,129,1.0,4.0,47,0.00,,,-99.99,,2013-05-04 11:11:00,
2013-05-04 07:21:00,52.0,32.0,-100.00,SSE,149,1.0,4.0,46,0.00,,,-99.99,,2013-05-04 11:21:00,
2013-05-04 07:32:00,52.0,32.0,-100.00,SSE,166,1.0,4.0,46,0.00,,,-99.99,,2013-05-04 11:32:00,
2013-05-04 07:45:00,54.0,34.0,-100.00,ESE,121,1.0,4.0,49,0.00,,,-99.99,,2013-05-04 11:45:00,
2013-05-04 07:56:00,52.0,32.0,-100.00,ENE,70,2.0,4.0,46,0.00,,,-99.99,,2013-05-04 11:56:00,
2013-05-04 08:08:00,53.0,32.0,-100.00,SE,128,1.0,4.0,47,0.00,,,-99.99,,2013-05-04 12:08:00,
2013-05-04 08:14:00,52.0,32.0,-100.00,ESE,121,1.0,4.0,49,0.00,,,-99.99,,2013-05-04 12:14:00,
2013-05-04 08:37:00,53.0,34.0,-100.00,SE,136,2.0,4.0,49,0.00,,,-99.99,,2013-05-04 12:37:00,
2013-05-04 08:51:00,55.0,34.0,-100.00,SSW,192,2.0,4.0,46,0.00,,,-99.99,,2013-05-04 12:51:00,
2013-05-04 09:01:00,56.0,34.0,-100.00,East,100,2.0,4.0,45,0.00,,,-99.99,,2013-05-04 13:01:00,
2013-05-04 09:11:00,57.0,34.0,-100.00,SW,220,2.0,4.0,44,0.00,,,-99.99,,2013-05-04 13:11:00,
2013-05-04 09:21:00,56.0,32.0,-100.00,South,179,2.0,4.0,41,0.00,,,-99.99,,2013-05-04 13:21:00,
2013-05-04 09:32:00,57.0,32.0,-100.00,South,177,4.0,6.0,37,0.00,,,-99.99,,2013-05-04 13:32:00,
2013-05-04 09:42:00,57.0,32.0,-100.00,SE,136,3.0,6.0,40,0.00,,,-99.99,,2013-05-04 13:42:00,
2013-05-04 09:52:00,57.0,32.0,-100.00,SE,136,3.0,6.0,40,0.00,,,-99.99,,2013-05-04 13:52:00,
2013-05-04 10:02:00,57.0,32.0,-100.00,SSE,160,4.0,6.0,40,0.00,,,-99.99,,2013-05-04 14:02:00,
2013-05-04 10:11:00,58.0,34.0,-100.00,SSE,163,4.0,6.0,40,0.00,,,-99.99,,2013-05-04 14:11:00,
2013-05-04 10:21:00,59.0,32.0,-100.00,SE,128,2.0,6.0,37,0.00,,,-99.99,,2013-05-04 14:21:00,
2013-05-04 10:32:00,59.0,34.0,-100.00,NE,52,2.0,6.0,41,0.00,,,-99.99,,2013-05-04 14:32:00,
2013-05-04 10:42:00,59.0,32.0,-100.00,South,170,1.0,6.0,37,0.00,,,-99.99,,2013-05-04 14:42:00,
2013-05-04 10:52:00,61.0,34.0,-100.00,South,189,2.0,6.0,36,0.00,,,-99.99,,2013-05-04 14:52:00,
2013-05-04 11:02:00,61.0,32.0,-100.00,SSE,152,3.0,6.0,33,0.00,,,-99.99,,2013-05-04 15:02:00,
2013-05-04 11:12:00,62.0,32.0,-100.00,South,190,3.0,6.0,34,0.00,,,-99.99,,2013-05-04 15:12:00,
2013-05-04 11:22:00,63.0,32.0,-100.00,SSW,196,3.0,6.0,33,0.00,,,-99.99,,2013-05-04 15:22:00,
2013-05-04 11:33:00,62.0,32.0,-100.00,ESE,122,2.0,6.0,33,0.00,,,-99.99,,2013-05-04 15:33:00,
2013-05-04 11:43:00,63.0,32.0,-100.00,SSW,193,1.0,6.0,33,0.00,,,-99.99,,2013-05-04 15:43:00,
2013-05-04 11:52:00,63.0,32.0,-100.00,SSE,165,3.0,6.0,33,0.00,,,-99.99,,2013-05-04 15:52:00,
2013-05-04 12:03:00,65.0,34.0,-100.00,ESE,117,3.0,6.0,33,0.00,,,-99.99,,2013-05-04 16:03:00,
2013-05-04 12:12:00,64.0,32.0,-100.00,South,179,4.0,6.0,31,0.00,,,-99.99,,2013-05-04 16:12:00,
2013-05-04 12:22:00,65.0,32.0,-100.00,SSE,168,2.0,6.0,31,0.00,,,-99.99,,2013-05-04 16:22:00,
2013-05-04 12:33:00,64.0,34.0,-100.00,SE,131,3.0,6.0,33,0.00,,,-99.99,,2013-05-04 16:33:00,
2013-05-04 12:42:00,64.0,34.0,-100.00,South,182,3.0,6.0,33,0.00,,,-99.99,,2013-05-04 16:42:00,
2013-05-04 12:52:00,65.0,36.0,-100.00,East,98,3.0,6.0,34,0.00,,,-99.99,,2013-05-04 16:52:00,
2013-05-04 13:02:00,65.0,34.0,-100.00,East,79,3.0,6.0,32,0.00,,,-99.99,,2013-05-04 17:02:00,
2013-05-04 13:12:00,64.0,32.0,-100.00,South,177,2.0,6.0,32,0.00,,,-99.99,,2013-05-04 17:12:00,
2013-05-04 13:22:00,65.0,34.0,-100.00,SSE,152,4.0,6.0,32,0.00,,,-99.99,,2013-05-04 17:22:00,
2013-05-04 13:32:00,69.0,36.0,-100.00,ENE,76,2.0,6.0,31,0.00,,,-99.99,,2013-05-04 17:32:00,
2013-05-04 13:42:00,69.0,37.0,-100.00,SE,124,2.0,6.0,32,0.00,,,-99.99,,2013-05-04 17:42:00,
2013-05-04 13:52:00,69.0,34.0,-100.00,East,98,4.0,6.0,29,0.00,,,-99.99,,2013-05-04 17:52:00,
2013-05-04 14:01:00,69.0,36.0,-100.00,South,182,6.0,8.0,31,0.00,,,-99.99,,2013-05-04 18:01:00,
2013-05-04 14:12:00,69.0,34.0,-100.00,SSE,158,5.0,8.0,28,0.00,,,-99.99,,2013-05-04 18:12:00,
2013-05-04 14:22:00,69.0,34.0,-100.00,SE,145,6.0,8.0,29,0.00,,,-99.99,,2013-05-04 18:22:00,
2013-05-04 14:32:00,70.0,36.0,-100.00,East,83,3.0,8.0,29,0.00,,,-99.99,,2013-05-04 18:32:00,
2013-05-04 14:42:00,71.0,36.0,-100.00,SSE,156,2.0,8.0,29,0.00,,,-99.99,,2013-05-04 18:42:00,
2013-05-04 14:52:00,70.0,34.0,-100.00,SSE,148,4.0,8.0,27,0.00,,,-99.99,,2013-05-04 18:52:00,
2013-05-04 15:01:00,72.0,34.0,-100.00,SSW,193,4.0,8.0,25,0.00,,,-99.99,,2013-05-04 19:01:00,
2013-05-04 15:11:00,72.0,34.0,-100.00,SSE,159,4.0,10.0,25,0.00,,,-99.99,,2013-05-04 19:11:00,
2013-05-04 15:21:00,72.0,32.0,-100.00,ESE,108,3.0,10.0,24,0.00,,,-99.99,,2013-05-04 19:21:00,
2013-05-04 15:32:00,71.0,34.0,-100.00,ESE,121,4.0,10.0,27,0.00,,,-99.99,,2013-05-04 19:32:00,
2013-05-04 15:42:00,72.0,32.0,-100.00,ESE,114,4.0,10.0,24,0.00,,,-99.99,,2013-05-04 19:42:00,
2013-05-04 15:52:00,72.0,32.0,-100.00,South,170,4.0,10.0,23,0.00,,,-99.99,,2013-05-04 19:52:00,
2013-05-04 16:02:00,72.0,32.0,-100.00,SSE,159,4.0,10.0,23,0.00,,,-99.99,,2013-05-04 20:02:00,
2013-05-04 16:11:00,74.0,34.0,-100.00,SSW,199,5.0,10.0,24,0.00,,,-99.99,,2013-05-04 20:11:00,
2013-05-04 16:22:00,74.0,34.0,-100.00,SE,125,4.0,10.0,23,0.00,,,-99.99,,2013-05-04 20:22:00,
2013-05-04 16:32:00,76.0,34.0,-100.00,SSE,165,2.0,10.0,23,0.00,,,-99.99,,2013-05-04 20:32:00,
2013-05-04 16:42:00,74.0,30.0,-100.00,SE,142,4.0,10.0,20,0.00,,,-99.99,,2013-05-04 20:42:00,
2013-05-04 16:52:00,74.0,32.0,-100.00,East,90,4.0,10.0,20,0.00,,,-99.99,,2013-05-04 20:52:00,
2013-05-04 17:02:00,73.0,30.0,-100.00,SSE,152,4.0,10.0,20,0.00,,,-99.99,,2013-05-04 21:02:00,
2013-05-04 17:12:00,73.0,32.0,-100.00,SE,142,4.0,10.0,22,0.00,,,-99.99,,2013-05-04 21:12:00,
2013-05-04 17:22:00,72.0,32.0,-100.00,South,184,4.0,10.0,22,0.00,,,-99.99,,2013-05-04 21:22:00,
2013-05-04 17:33:00,73.0,32.0,-100.00,SSE,149,2.0,10.0,23,0.00,,,-99.99,,2013-05-04 21:33:00,
2013-05-04 17:43:00,72.0,32.0,-100.00,East,88,4.0,10.0,23,0.00,,,-99.99,,2013-05-04 21:43:00,
2013-05-04 17:53:00,72.0,32.0,-100.00,WSW,244,3.0,10.0,24,0.00,,,-99.99,,2013-05-04 21:53:00,
2013-05-04 18:03:00,73.0,34.0,-100.00,East,80,3.0,10.0,25,0.00,,,-99.99,,2013-05-04 22:03:00,
2013-05-04 18:12:00,72.0,34.0,-100.00,South,189,2.0,10.0,25,0.00,,,-99.99,,2013-05-04 22:12:00,
2013-05-04 18:22:00,72.0,34.0,-100.00,South,176,2.0,10.0,25,0.00,,,-99.99,,2013-05-04 22:22:00,
2013-05-04 18:33:00,72.0,34.0,-100.00,SE,132,2.0,10.0,25,0.00,,,-99.99,,2013-05-04 22:33:00,
2013-05-04 18:42:00,72.0,36.0,-100.00,ENE,69,1.0,10.0,27,0.00,,,-99.99,,2013-05-04 22:42:00,
2013-05-04 18:52:00,72.0,34.0,-100.00,SE,134,2.0,10.0,25,0.00,,,-99.99,,2013-05-04 22:52:00,
2013-05-04 19:02:00,72.0,36.0,-100.00,East,101,2.0,10.0,27,0.00,,,-99.99,,2013-05-04 23:02:00,
2013-05-04 19:12:00,71.0,34.0,-100.00,SE,124,2.0,10.0,27,0.00,,,-99.99,,2013-05-04 23:12:00,
2013-05-04 19:22:00,73.0,37.0,-100.00,South,189,1.0,10.0,28,0.00,,,-99.99,,2013-05-04 23:22:00,
2013-05-04 19:32:00,70.0,36.0,-100.00,SW,228,1.0,10.0,29,0.00,,,-99.99,,2013-05-04 23:32:00,
2013-05-04 19:42:00,70.0,36.0,-100.00,SSE,151,1.0,10.0,29,0.00,,,-99.99,,2013-05-04 23:42:00,
2013-05-04 19:52:00,70.0,36.0,-100.00,SSE,158,2.0,10.0,29,0.00,,,-99.99,,2013-05-04 23:52:00,
2013-05-04 20:02:00,69.0,37.0,-100.00,ESE,121,1.0,10.0,32,0.00,,,-99.99,,2013-05-05 00:02:00,
2013-05-04 20:11:00,69.0,37.0,-100.00,SE,124,2.0,10.0,32,0.00,,,-99.99,,2013-05-05 00:11:00,
2013-05-04 20:21:00,69.0,37.0,-100.00,ESE,111,1.0,10.0,32,0.00,,,-99.99,,2013-05-05 00:21:00,
2013-05-04 20:32:00,68.0,37.0,-100.00,ESE,104,0.0,10.0,33,0.00,,,-99.99,,2013-05-05 00:32:00,
2013-05-04 20:42:00,67.0,36.0,-100.00,East,81,0.0,10.0,33,0.00,,,-99.99,,2013-05-05 00:42:00,
2013-05-04 20:51:00,67.0,37.0,-100.00,SSE,151,1.0,10.0,34,0.00,,,-99.99,,2013-05-05 00:51:00,
2013-05-04 21:01:00,67.0,36.0,-100.00,SE,127,1.0,10.0,33,0.00,,,-99.99,,2013-05-05 01:01:00,
2013-05-04 21:11:00,66.0,36.0,-100.00,ESE,121,1.0,10.0,34,0.00,,,-99.99,,2013-05-05 01:11:00,
2013-05-04 21:21:00,66.0,37.0,-100.00,SE,141,1.0,10.0,36,0.00,,,-99.99,,2013-05-05 01:21:00,
2013-05-04 21:32:00,66.0,37.0,-100.00,ESE,107,0.0,10.0,37,0.00,,,-99.99,,2013-05-05 01:32:00,
2013-05-04 21:42:00,67.0,39.0,-100.00,SSE,156,0.0,10.0,38,0.00,,,-99.99,,2013-05-05 01:42:00,
2013-05-04 21:52:00,67.0,39.0,-100.00,South,182,0.0,10.0,38,0.00,,,-99.99,,2013-05-05 01:52:00,
2013-05-04 22:02:00,67.0,39.0,-100.00,South,182,0.0,10.0,38,0.00,,,-99.99,,2013-05-05 02:02:00,
2013-05-04 22:12:00,66.0,41.0,-100.00,SSE,151,0.0,10.0,41,0.00,,,-99.99,,2013-05-05 02:12:00,
2013-05-04 22:22:00,67.0,41.0,-100.00,SE,144,0.0,10.0,41,0.00,,,-99.99,,2013-05-05 02:22:00,
2013-05-04 22:32:00,67.0,41.0,-100.00,SSE,163,0.0,10.0,41,0.00,,,-99.99,,2013-05-05 02:32:00,
2013-05-04 22:42:00,66.0,41.0,-100.00,South,180,0.0,10.0,42,0.00,,,-99.99,,2013-05-05 02:42:00,
2013-05-04 22:52:00,66.0,41.0,-100.00,SE,138,0.0,10.0,42,0.00,,,-99.99,,2013-05-05 02:52:00,
2013-05-04 23:01:00,66.0,43.0,-100.00,East,100,0.0,10.0,44,0.00,,,-99.99,,2013-05-05 03:01:00,
2013-05-04 23:11:00,65.0,43.0,-100.00,ESE,121,0.0,10.0,44,0.00,,,-99.99,,2013-05-05 03:11:00,
2013-05-04 23:22:00,65.0,41.0,-100.00,SSE,152,1.0,10.0,44,0.00,,,-99.99,,2013-05-05 03:22:00,
2013-05-04 23:33:00,65.0,43.0,-100.00,SE,142,1.0,10.0,45,0.00,,,-99.99,,2013-05-05 03:33:00,
2013-05-04 23:42:00,65.0,43.0,-100.00,ESE,114,1.0,10.0,46,0.00,,,-99.99,,2013-05-05 03:42:00,
2013-05-04 23:53:00,65.0,43.0,-100.00,SSW,194,1.0,10.0,46,0.00,,,-99.99,,2013-05-05 03:53:00,